createdAt,value
2018-07-07T00:01:35.644Z,99.90
2018-07-07T00:04:06.412Z,99.90
2018-07-07T00:06:48.711Z,99.90
2018-07-07T00:09:19.797Z,99.90
2018-07-07T00:11:50.127Z,99.90
2018-07-07T00:14:20.724Z,99.90
2018-07-07T00:16:51.281Z,99.90
2018-07-07T00:19:21.808Z,99.90
2018-07-07T00:21:52.210Z,99.90
2018-07-07T00:24:22.667Z,99.90
2018-07-07T00:26:53.261Z,99.90
2018-07-07T00:29:23.722Z,99.90
2018-07-07T00:31:54.123Z,99.90
2018-07-07T00:34:24.527Z,99.90
2018-07-07T00:36:55.379Z,99.90
2018-07-07T00:39:25.792Z,99.90
2018-07-07T00:41:56.256Z,99.90
2018-07-07T00:44:26.880Z,99.90
2018-07-07T00:46:57.347Z,99.90
2018-07-07T00:49:27.807Z,99.90
2018-07-07T00:51:58.401Z,99.90
2018-07-07T00:54:31.049Z,99.90
2018-07-07T00:57:18.977Z,99.90
2018-07-07T00:59:49.700Z,99.90
2018-07-07T01:02:22.609Z,99.90
2018-07-07T01:04:54.451Z,99.90
2018-07-07T01:09:56.284Z,99.90
2018-07-07T01:12:27.236Z,99.90
2018-07-07T01:14:58.144Z,99.90
2018-07-07T01:17:28.549Z,99.90
2018-07-07T01:19:59.149Z,99.90
2018-07-07T01:22:29.533Z,99.90
2018-07-07T01:25:05.479Z,99.90
2018-07-07T01:27:36.664Z,99.90
2018-07-07T01:30:07.355Z,99.90
2018-07-07T01:32:38.023Z,99.90
2018-07-07T01:35:08.419Z,99.90
2018-07-07T01:37:38.847Z,99.90
2018-07-07T01:40:09.244Z,99.90
2018-07-07T01:42:39.747Z,99.90
2018-07-07T01:45:10.015Z,99.90
2018-07-07T01:48:04.100Z,99.90
2018-07-07T01:50:34.452Z,99.90
2018-07-07T01:53:04.891Z,99.90
2018-07-07T01:55:35.455Z,99.90
2018-07-07T01:58:06.275Z,99.90
2018-07-07T02:00:36.785Z,99.90
2018-07-07T02:03:07.288Z,99.90
2018-07-07T02:05:37.881Z,99.90
2018-07-07T02:08:08.463Z,99.90
2018-07-07T02:13:38.905Z,99.90
2018-07-07T02:16:09.427Z,99.90
2018-07-07T02:18:39.962Z,99.90
2018-07-07T02:21:10.288Z,99.90
2018-07-07T02:23:40.908Z,99.90
2018-07-07T02:26:11.316Z,99.90
2018-07-07T02:28:41.595Z,99.90
2018-07-07T02:31:12.504Z,99.90
2018-07-07T02:33:42.800Z,99.90
2018-07-07T02:36:13.289Z,99.90
2018-07-07T02:38:51.028Z,99.90
2018-07-07T02:41:21.376Z,99.90
2018-07-07T02:43:53.737Z,99.90
2018-07-07T02:46:24.677Z,99.90
2018-07-07T02:48:55.127Z,99.90
2018-07-07T02:51:25.673Z,99.90
2018-07-07T02:53:56.243Z,99.90
2018-07-07T02:56:26.712Z,99.90
2018-07-07T02:58:57.223Z,99.90
2018-07-07T03:01:27.724Z,99.90
2018-07-07T03:03:58.017Z,99.90
2018-07-07T03:06:28.854Z,99.90
2018-07-07T03:08:59.259Z,99.90
2018-07-07T03:11:29.841Z,99.90
2018-07-07T03:14:00.223Z,99.90
2018-07-07T03:16:30.703Z,99.90
2018-07-07T03:19:01.163Z,99.90
2018-07-07T03:21:31.746Z,99.90
2018-07-07T03:24:02.206Z,99.90
2018-07-07T03:26:33.235Z,99.90
2018-07-07T03:29:03.898Z,99.90
2018-07-07T03:31:34.548Z,99.90
2018-07-07T03:34:05.097Z,99.90
2018-07-07T03:36:36.251Z,99.90
2018-07-07T03:39:08.847Z,99.90
2018-07-07T03:41:39.786Z,99.90
2018-07-07T03:44:10.522Z,99.90
2018-07-07T03:46:41.841Z,99.90
2018-07-07T03:49:12.527Z,99.90
2018-07-07T03:51:44.819Z,99.90
2018-07-07T03:54:16.899Z,99.90
2018-07-07T03:56:47.873Z,99.90
2018-07-07T03:59:19.420Z,99.90
2018-07-07T04:01:50.377Z,99.90
2018-07-07T04:04:21.423Z,99.90
2018-07-07T04:06:52.614Z,99.90
2018-07-07T04:11:54.287Z,99.90
2018-07-07T04:14:25.596Z,99.90
2018-07-07T04:16:57.455Z,99.90
2018-07-07T04:19:30.297Z,99.90
2018-07-07T04:22:02.096Z,99.90
2018-07-07T04:24:33.008Z,99.90
2018-07-07T04:27:04.198Z,99.90
2018-07-07T04:29:35.135Z,99.90
2018-07-07T04:32:06.057Z,99.90
2018-07-07T04:34:38.607Z,99.90
2018-07-07T04:37:09.678Z,99.90
2018-07-07T04:39:41.087Z,99.90
2018-07-07T04:42:17.356Z,99.90
2018-07-07T04:44:48.574Z,99.90
2018-07-07T04:47:19.415Z,99.90
2018-07-07T04:49:50.270Z,99.90
2018-07-07T04:52:21.210Z,99.90
2018-07-07T04:54:52.162Z,99.90
2018-07-07T04:57:23.159Z,99.90
2018-07-07T04:59:54.194Z,99.90
2018-07-07T05:02:25.192Z,99.90
2018-07-07T05:04:56.415Z,99.90
2018-07-07T05:07:27.535Z,99.90
2018-07-07T05:09:58.031Z,99.90
2018-07-07T05:12:28.468Z,99.90
2018-07-07T05:14:58.907Z,99.90
2018-07-07T05:17:29.363Z,99.90
2018-07-07T05:19:59.739Z,99.90
2018-07-07T05:22:30.625Z,99.90
2018-07-07T05:25:01.517Z,99.90
2018-07-07T05:27:32.288Z,99.90
2018-07-07T05:30:02.734Z,99.90
2018-07-07T05:32:33.848Z,99.90
2018-07-07T05:35:04.535Z,99.90
2018-07-07T05:37:35.371Z,99.90
2018-07-07T05:40:05.802Z,99.90
2018-07-07T05:42:36.288Z,99.90
2018-07-07T05:45:06.957Z,99.90
2018-07-07T05:47:49.803Z,99.90
2018-07-07T05:50:20.176Z,99.90
2018-07-07T05:52:50.871Z,99.90
2018-07-07T05:55:21.923Z,99.90
2018-07-07T05:57:53.018Z,99.90
2018-07-07T06:00:23.639Z,99.90
2018-07-07T06:02:55.646Z,99.90
2018-07-07T06:05:26.236Z,99.90
2018-07-07T06:07:57.528Z,99.90
2018-07-07T06:10:28.527Z,99.90
2018-07-07T06:12:59.556Z,99.90
2018-07-07T06:15:30.183Z,99.90
2018-07-07T06:18:00.898Z,99.90
2018-07-07T06:20:31.374Z,99.90
2018-07-07T06:23:01.856Z,99.90
2018-07-07T06:25:32.488Z,99.90
2018-07-07T06:28:20.784Z,99.90
2018-07-07T06:30:51.322Z,99.90
2018-07-07T06:33:21.895Z,99.90
2018-07-07T06:35:52.369Z,99.90
2018-07-07T06:38:22.923Z,98.20
2018-07-07T06:40:53.326Z,95.90
2018-07-07T06:43:29.708Z,94.30
2018-07-07T06:48:34.716Z,83.00
2018-07-07T06:51:05.743Z,81.30
2018-07-07T06:53:36.523Z,79.00
2018-07-07T06:56:07.746Z,72.90
2018-07-07T06:58:38.776Z,70.60
2018-07-07T07:01:09.785Z,71.10
2018-07-07T07:03:40.795Z,70.50
2018-07-07T07:06:11.738Z,67.20
2018-07-07T07:08:42.820Z,68.50
2018-07-07T07:11:13.846Z,67.30
2018-07-07T07:13:44.875Z,69.40
2018-07-07T07:16:15.793Z,72.80
2018-07-07T07:18:47.577Z,75.20
2018-07-07T07:21:18.203Z,71.00
2018-07-07T07:23:49.175Z,83.80
2018-07-07T07:31:23.445Z,87.70
2018-07-07T07:33:54.135Z,87.20
2018-07-07T07:36:45.479Z,85.00
2018-07-07T07:39:16.684Z,82.30
2018-07-07T07:41:47.129Z,81.00
2018-07-07T07:44:17.722Z,84.50
2018-07-07T07:46:54.314Z,89.60
2018-07-07T07:49:26.215Z,91.60
2018-07-07T07:51:56.726Z,95.00
2018-07-07T07:54:27.696Z,98.40
2018-07-07T07:56:58.359Z,99.90
2018-07-07T07:59:29.410Z,99.90
2018-07-07T08:02:01.724Z,99.90
2018-07-07T08:04:32.602Z,99.90
2018-07-07T08:07:04.139Z,99.00
2018-07-07T08:09:35.147Z,98.60
2018-07-07T08:12:06.142Z,98.30
2018-07-07T08:14:37.176Z,98.70
2018-07-07T08:17:08.192Z,99.50
2018-07-07T08:19:39.181Z,99.90
2018-07-07T08:22:10.196Z,99.90
2018-07-07T08:24:41.218Z,99.90
2018-07-07T08:27:12.499Z,98.30
2018-07-07T08:29:44.252Z,94.70
2018-07-07T08:32:14.921Z,93.20
2018-07-07T08:34:45.755Z,92.10
2018-07-07T08:37:17.139Z,90.80
2018-07-07T08:39:47.559Z,88.30
2018-07-07T08:42:17.940Z,88.40
2018-07-07T08:44:48.422Z,84.60
2018-07-07T08:47:18.808Z,81.30
2018-07-07T08:49:49.317Z,77.10
2018-07-07T08:52:19.985Z,69.90
2018-07-07T08:54:50.553Z,70.50
2018-07-07T08:57:21.130Z,66.00
2018-07-07T08:59:51.676Z,60.80
2018-07-07T09:02:22.304Z,58.20
2018-07-07T09:04:52.749Z,58.00
2018-07-07T09:07:23.344Z,55.70
2018-07-07T09:09:53.745Z,53.30
2018-07-07T09:12:24.277Z,56.80
2018-07-07T09:14:54.932Z,54.30
2018-07-07T09:17:25.521Z,52.70
2018-07-07T09:19:56.016Z,53.50
2018-07-07T09:22:26.377Z,54.60
2018-07-07T09:24:56.799Z,57.20
2018-07-07T09:27:27.243Z,54.50
2018-07-07T09:29:57.690Z,55.60
2018-07-07T09:32:28.263Z,56.10
2018-07-07T09:34:58.794Z,55.50
2018-07-07T09:37:29.473Z,56.20
2018-07-07T09:40:00.185Z,58.90
2018-07-07T09:42:33.327Z,64.80
2018-07-07T09:45:06.253Z,65.80
2018-07-07T09:47:37.757Z,63.00
2018-07-07T09:50:09.388Z,61.40
2018-07-07T09:52:40.690Z,55.60
2018-07-07T09:55:12.112Z,54.50
2018-07-07T09:57:42.962Z,52.30
2018-07-07T10:00:21.887Z,50.40
2018-07-07T10:02:52.521Z,48.90
2018-07-07T10:05:22.846Z,50.10
2018-07-07T10:07:54.000Z,50.80
2018-07-07T10:10:24.574Z,49.20
2018-07-07T10:12:55.543Z,50.20
2018-07-07T10:15:26.141Z,49.70
2018-07-07T10:17:56.622Z,48.30
2018-07-07T10:20:27.316Z,44.30
2018-07-07T10:22:57.951Z,44.40
2018-07-07T10:25:28.976Z,47.20
2018-07-07T10:27:59.318Z,43.80
2018-07-07T10:30:29.671Z,41.40
2018-07-07T10:33:01.715Z,40.00
2018-07-07T10:35:32.052Z,41.10
2018-07-07T10:38:24.785Z,41.50
2018-07-07T10:40:55.475Z,41.20
2018-07-07T10:43:25.942Z,40.30
2018-07-07T10:45:56.347Z,38.70
2018-07-07T10:48:26.286Z,38.20
2018-07-07T10:50:56.391Z,39.20
2018-07-07T10:53:27.107Z,38.00
2018-07-07T10:56:11.964Z,35.40
2018-07-07T10:58:42.348Z,36.00
2018-07-07T11:01:12.671Z,34.50
2018-07-07T11:03:42.811Z,34.10
2018-07-07T11:06:13.194Z,34.60
2018-07-07T11:08:43.794Z,34.60
2018-07-07T11:11:15.005Z,33.00
2018-07-07T11:13:51.114Z,33.80
2018-07-07T11:16:23.440Z,33.70
2018-07-07T11:18:54.886Z,35.00
2018-07-07T11:21:34.810Z,37.70
2018-07-07T11:24:05.770Z,39.40
2018-07-07T11:26:36.246Z,36.40
2018-07-07T11:29:06.797Z,36.50
2018-07-07T11:31:36.963Z,34.60
2018-07-07T11:34:19.003Z,33.70
2018-07-07T11:36:48.841Z,32.40
2018-07-07T11:39:18.748Z,32.40
2018-07-07T11:41:54.665Z,31.80
2018-07-07T11:44:24.770Z,32.20
2018-07-07T11:46:54.729Z,32.80
2018-07-07T11:49:24.952Z,33.60
2018-07-07T11:51:55.155Z,32.10
2018-07-07T11:54:25.570Z,31.10
2018-07-07T11:56:55.551Z,31.00
2018-07-07T12:01:55.964Z,32.50
2018-07-07T12:04:26.440Z,34.10
2018-07-07T12:06:57.017Z,34.00
2018-07-07T12:09:27.623Z,35.90
2018-07-07T12:11:58.466Z,36.70
2018-07-07T12:14:29.006Z,36.70
2018-07-07T12:16:59.693Z,38.60
2018-07-07T12:22:00.056Z,39.90
2018-07-07T12:24:30.662Z,37.20
2018-07-07T12:27:01.582Z,34.30
2018-07-07T12:29:32.459Z,34.80
2018-07-07T12:32:03.135Z,33.60
2018-07-07T12:34:33.730Z,32.30
2018-07-07T12:37:04.636Z,30.90
2018-07-07T12:39:35.208Z,32.90
2018-07-07T12:42:05.842Z,32.60
2018-07-07T12:44:36.646Z,34.40
2018-07-07T12:47:14.815Z,36.40
2018-07-07T12:49:45.736Z,35.50
2018-07-07T12:52:16.533Z,35.10
2018-07-07T12:54:47.579Z,37.00
2018-07-07T12:57:18.629Z,39.10
2018-07-07T12:59:49.521Z,36.60
2018-07-07T13:02:20.274Z,35.40
2018-07-07T13:04:51.242Z,35.30
2018-07-07T13:07:21.844Z,37.70
2018-07-07T13:09:52.767Z,34.10
2018-07-07T13:12:23.654Z,34.50
2018-07-07T13:14:54.657Z,33.80
2018-07-07T13:17:25.759Z,36.70
2018-07-07T13:19:56.315Z,36.20
2018-07-07T13:22:27.184Z,37.00
2018-07-07T13:24:58.327Z,38.20
2018-07-07T13:27:28.983Z,38.60
2018-07-07T13:29:59.832Z,39.30
2018-07-07T13:32:30.743Z,39.60
2018-07-07T13:35:01.700Z,39.20
2018-07-07T13:37:32.747Z,35.30
2018-07-07T13:40:03.428Z,32.90
2018-07-07T13:42:34.307Z,32.00
2018-07-07T13:45:05.279Z,30.40
2018-07-07T13:47:36.004Z,30.00
2018-07-07T13:50:07.030Z,31.30
2018-07-07T13:52:38.155Z,31.50
2018-07-07T13:55:09.155Z,32.40
2018-07-07T13:57:39.992Z,30.70
2018-07-07T14:00:10.905Z,29.20
2018-07-07T14:02:41.832Z,29.30
2018-07-07T14:05:12.527Z,30.00
2018-07-07T14:07:43.116Z,31.60
2018-07-07T14:10:14.040Z,30.80
2018-07-07T14:12:44.595Z,29.10
2018-07-07T14:15:15.215Z,28.50
2018-07-07T14:17:46.097Z,28.30
2018-07-07T14:20:16.558Z,27.90
2018-07-07T14:22:47.951Z,28.70
2018-07-07T14:25:18.656Z,26.40
2018-07-07T14:27:49.595Z,26.80
2018-07-07T14:30:20.603Z,26.60
2018-07-07T14:32:51.635Z,29.10
2018-07-07T14:35:22.488Z,29.00
2018-07-07T14:37:53.294Z,28.90
2018-07-07T14:40:24.180Z,31.90
2018-07-07T14:45:30.374Z,33.90
2018-07-07T14:48:04.776Z,35.00
2018-07-07T14:50:35.732Z,35.80
2018-07-07T14:53:07.115Z,37.10
2018-07-07T14:55:37.820Z,38.80
2018-07-07T14:58:08.862Z,34.60
2018-07-07T15:00:39.386Z,32.70
2018-07-07T15:03:10.396Z,30.00
2018-07-07T15:05:41.249Z,28.50
2018-07-07T15:08:11.871Z,29.90
2018-07-07T15:10:42.708Z,31.40
2018-07-07T15:13:13.818Z,30.50
2018-07-07T15:15:44.816Z,30.90
2018-07-07T15:18:15.763Z,29.50
2018-07-07T15:20:46.496Z,28.20
2018-07-07T15:23:17.551Z,27.70
2018-07-07T15:25:48.438Z,26.60
2018-07-07T15:28:18.978Z,26.60
2018-07-07T15:30:49.888Z,26.60
2018-07-07T15:33:20.811Z,26.80
2018-07-07T15:35:51.576Z,26.10
2018-07-07T15:38:22.453Z,26.90
2018-07-07T15:40:53.332Z,27.00
2018-07-07T15:43:23.962Z,27.30
2018-07-07T15:45:55.040Z,26.90
2018-07-07T15:48:25.988Z,26.50
2018-07-07T15:50:56.616Z,27.30
2018-07-07T15:53:27.676Z,27.60
2018-07-07T15:55:58.702Z,27.60
2018-07-07T15:58:29.714Z,27.80
2018-07-07T16:01:01.002Z,26.60
2018-07-07T16:03:32.079Z,29.60
2018-07-07T16:06:02.934Z,33.60
2018-07-07T16:08:34.496Z,37.70
2018-07-07T16:11:05.467Z,39.20
2018-07-07T16:13:36.515Z,40.30
2018-07-07T16:16:07.484Z,41.70
2018-07-07T16:18:38.145Z,41.30
2018-07-07T16:21:09.206Z,41.30
2018-07-07T16:23:40.095Z,42.50
2018-07-07T16:26:10.808Z,41.30
2018-07-07T16:28:41.760Z,41.30
2018-07-07T16:31:12.247Z,41.30
2018-07-07T16:33:43.287Z,42.10
2018-07-07T16:38:44.571Z,41.10
2018-07-07T16:41:15.236Z,41.10
2018-07-07T16:43:46.627Z,41.70
2018-07-07T16:46:17.635Z,41.40
2018-07-07T16:48:48.649Z,41.00
2018-07-07T16:51:19.372Z,39.50
2018-07-07T16:53:50.145Z,39.60
2018-07-07T16:56:21.743Z,40.20
2018-07-07T16:58:52.694Z,38.10
2018-07-07T17:03:53.931Z,36.80
2018-07-07T17:06:24.748Z,35.40
2018-07-07T17:08:55.423Z,35.90
2018-07-07T17:11:26.464Z,36.40
2018-07-07T17:13:57.788Z,37.80
2018-07-07T17:16:28.924Z,37.90
2018-07-07T17:19:00.055Z,39.40
2018-07-07T17:21:30.937Z,41.50
2018-07-07T17:24:01.836Z,44.50
2018-07-07T17:26:32.866Z,47.00
2018-07-07T17:29:03.844Z,48.90
2018-07-07T17:31:34.821Z,48.60
2018-07-07T17:34:05.533Z,48.50
2018-07-07T17:36:36.875Z,49.70
2018-07-07T17:39:07.882Z,50.70
2018-07-07T17:41:39.068Z,49.40
2018-07-07T17:44:10.051Z,49.50
2018-07-07T17:46:41.945Z,50.00
2018-07-07T17:49:12.954Z,49.20
2018-07-07T17:51:43.564Z,48.50
2018-07-07T17:54:14.200Z,47.00
2018-07-07T17:56:45.416Z,46.20
2018-07-07T17:59:16.587Z,46.60
2018-07-07T18:01:49.895Z,47.40
2018-07-07T18:04:20.983Z,48.00
2018-07-07T18:06:52.010Z,49.30
2018-07-07T18:09:23.011Z,49.90
2018-07-07T18:11:54.044Z,51.50
2018-07-07T18:14:25.255Z,51.80
2018-07-07T18:16:56.279Z,53.70
2018-07-07T18:19:27.317Z,54.70
2018-07-07T18:21:58.813Z,56.30
2018-07-07T18:24:29.804Z,57.50
2018-07-07T18:27:00.742Z,58.20
2018-07-07T18:29:31.770Z,56.80
2018-07-07T18:32:02.826Z,55.40
2018-07-07T18:34:33.730Z,54.70
2018-07-07T18:37:04.752Z,53.80
2018-07-07T18:39:36.154Z,53.30
2018-07-07T18:42:07.382Z,53.30
2018-07-07T18:44:38.368Z,53.60
2018-07-07T18:47:09.482Z,54.20
2018-07-07T18:49:40.431Z,55.20
2018-07-07T18:52:11.267Z,55.90
2018-07-07T18:54:42.211Z,57.50
2018-07-07T18:57:25.430Z,58.10
2018-07-07T18:59:56.464Z,59.30
2018-07-07T19:04:57.516Z,63.40
2018-07-07T19:07:28.512Z,65.00
2018-07-07T19:09:59.724Z,74.00
2018-07-07T19:12:30.569Z,82.80
2018-07-07T19:15:06.510Z,91.40
2018-07-07T19:17:36.987Z,94.20
2018-07-07T19:20:07.944Z,97.90
2018-07-07T19:22:43.878Z,99.90
2018-07-07T19:26:19.087Z,99.90
2018-07-07T19:28:53.623Z,99.90
2018-07-07T19:31:26.316Z,99.90
2018-07-07T19:34:02.053Z,99.90
2018-07-07T19:36:38.003Z,99.90
2018-07-07T19:39:17.731Z,99.90
2018-07-07T19:41:48.695Z,99.90
2018-07-07T19:44:19.599Z,99.90
2018-07-07T19:46:50.643Z,99.90
2018-07-07T19:49:21.151Z,99.90
2018-07-07T19:51:51.742Z,99.90
2018-07-07T19:54:22.586Z,99.90
2018-07-07T19:56:53.494Z,99.90
2018-07-07T19:59:24.506Z,99.90
2018-07-07T20:01:55.220Z,99.90
2018-07-07T20:04:26.160Z,99.90
2018-07-07T20:06:57.079Z,99.90
2018-07-07T20:09:27.815Z,99.90
2018-07-07T20:11:58.777Z,99.90
2018-07-07T20:14:29.745Z,99.90
2018-07-07T20:17:10.784Z,99.90
2018-07-07T20:21:05.603Z,99.90
2018-07-07T20:23:36.163Z,99.90
2018-07-07T20:26:07.307Z,99.90
2018-07-07T20:28:42.803Z,99.90
2018-07-07T20:31:13.264Z,99.90
2018-07-07T20:33:43.792Z,99.90
2018-07-07T20:36:14.147Z,99.90
2018-07-07T20:38:44.787Z,99.90
2018-07-07T20:41:15.270Z,99.90
2018-07-07T20:43:45.885Z,99.90
2018-07-07T20:46:16.214Z,99.90
2018-07-07T20:48:46.652Z,99.90
2018-07-07T20:51:17.884Z,99.90
2018-07-07T20:53:48.374Z,99.90
2018-07-07T20:56:18.698Z,99.90
2018-07-07T20:58:48.773Z,99.90
2018-07-07T21:01:18.986Z,99.90
2018-07-07T21:03:49.343Z,99.90
2018-07-07T21:06:23.726Z,99.90
2018-07-07T21:08:54.202Z,99.90
2018-07-07T21:11:25.386Z,99.90
2018-07-07T21:13:55.955Z,99.90
2018-07-07T21:16:28.615Z,99.90
2018-07-07T21:18:59.140Z,99.90
2018-07-07T21:21:29.486Z,99.90
2018-07-07T21:23:59.791Z,99.90
2018-07-07T21:26:30.059Z,99.90
2018-07-07T21:29:00.478Z,99.90
2018-07-07T21:31:39.033Z,99.90
2018-07-07T21:34:09.382Z,99.90
2018-07-07T21:36:42.144Z,99.90
2018-07-07T21:39:44.949Z,99.90
2018-07-07T21:42:16.179Z,99.90
2018-07-07T21:44:46.560Z,99.90
2018-07-07T21:47:16.979Z,99.90
2018-07-07T21:49:47.272Z,99.90
2018-07-07T21:52:17.732Z,99.90
2018-07-07T21:54:48.216Z,99.90
2018-07-07T21:57:26.648Z,99.90
2018-07-07T21:59:57.048Z,99.90
2018-07-07T22:02:32.496Z,99.90
2018-07-07T22:06:10.824Z,99.90
2018-07-07T22:08:41.244Z,99.90
2018-07-07T22:11:11.804Z,99.90
2018-07-07T22:13:42.291Z,99.90
2018-07-07T22:16:12.630Z,99.90
2018-07-07T22:18:43.116Z,99.90
2018-07-07T22:23:54.498Z,99.90
2018-07-07T22:26:25.180Z,99.90
2018-07-07T22:28:56.214Z,99.90
2018-07-07T22:31:26.944Z,99.90
2018-07-07T22:33:58.951Z,99.90
2018-07-07T22:36:35.003Z,99.90
2018-07-07T22:39:05.884Z,99.90
2018-07-07T22:42:00.166Z,99.90
2018-07-07T22:44:30.726Z,99.90
2018-07-07T22:47:01.187Z,99.90
2018-07-07T22:52:32.712Z,99.90
2018-07-07T22:55:03.138Z,99.90
2018-07-07T22:57:33.645Z,99.90
2018-07-07T23:02:35.079Z,99.90
2018-07-07T23:05:06.076Z,99.90
2018-07-07T23:07:36.707Z,99.90
2018-07-07T23:10:07.692Z,99.90
2018-07-07T23:12:40.759Z,99.90
2018-07-07T23:15:11.714Z,99.90
2018-07-07T23:17:42.716Z,99.90
2018-07-07T23:20:13.604Z,99.90
2018-07-07T23:22:54.659Z,99.90
2018-07-07T23:25:25.819Z,99.90
2018-07-07T23:27:57.100Z,99.90
2018-07-07T23:30:28.165Z,99.90
2018-07-07T23:32:59.008Z,99.90
2018-07-07T23:35:29.815Z,99.90
2018-07-07T23:38:00.864Z,99.90
2018-07-07T23:40:31.756Z,99.90
2018-07-07T23:43:08.266Z,99.90
2018-07-07T23:45:39.267Z,99.90
2018-07-07T23:48:10.068Z,99.90
2018-07-07T23:53:11.623Z,99.90
2018-07-07T23:55:42.636Z,99.90
2018-07-07T23:58:13.279Z,99.90
